sensor_id;sensor_type;location;lat;lon;timestamp;temperature;humidity
997;DHT22;487;50.126;8.698;2022-09-24T00:01:45;14.40;1.00
997;DHT22;487;50.126;8.698;2022-09-24T00:04:13;14.40;1.00
997;DHT22;487;50.126;8.698;2022-09-24T00:06:43;14.30;1.00
997;DHT22;487;50.126;8.698;2022-09-24T00:09:12;14.30;1.00
997;DHT22;487;50.126;8.698;2022-09-24T00:11:41;14.30;1.00
997;DHT22;487;50.126;8.698;2022-09-24T00:14:11;14.30;1.00
997;DHT22;487;50.126;8.698;2022-09-24T00:16:40;14.20;1.00
997;DHT22;487;50.126;8.698;2022-09-24T00:19:11;14.30;1.00
997;DHT22;487;50.126;8.698;2022-09-24T00:21:40;14.30;1.00
997;DHT22;487;50.126;8.698;2022-09-24T00:24:09;14.30;1.00
997;DHT22;487;50.126;8.698;2022-09-24T00:27:01;14.20;1.00
997;DHT22;487;50.126;8.698;2022-09-24T00:29:28;14.20;1.00
997;DHT22;487;50.126;8.698;2022-09-24T00:31:59;14.20;1.00
997;DHT22;487;50.126;8.698;2022-09-24T00:34:28;14.20;1.00
997;DHT22;487;50.126;8.698;2022-09-24T00:36:56;14.10;1.00
997;DHT22;487;50.126;8.698;2022-09-24T00:39:24;14.10;1.00
997;DHT22;487;50.126;8.698;2022-09-24T00:41:52;14.10;1.00
997;DHT22;487;50.126;8.698;2022-09-24T00:44:50;14.10;1.00
997;DHT22;487;50.126;8.698;2022-09-24T00:47:29;14.20;1.00
997;DHT22;487;50.126;8.698;2022-09-24T00:50:09;14.20;1.00
997;DHT22;487;50.126;8.698;2022-09-24T00:52:43;14.20;1.00
997;DHT22;487;50.126;8.698;2022-09-24T00:55:12;14.10;1.00
997;DHT22;487;50.126;8.698;2022-09-24T00:57:41;14.10;1.00
997;DHT22;487;50.126;8.698;2022-09-24T01:00:12;14.10;1.00
997;DHT22;487;50.126;8.698;2022-09-24T01:02:44;14.10;1.00
997;DHT22;487;50.126;8.698;2022-09-24T01:05:12;14.10;1.00
997;DHT22;487;50.126;8.698;2022-09-24T01:07:40;14.10;1.00
997;DHT22;487;50.126;8.698;2022-09-24T01:10:09;14.10;1.00
997;DHT22;487;50.126;8.698;2022-09-24T01:15:16;14.00;1.00
997;DHT22;487;50.126;8.698;2022-09-24T01:17:55;14.00;1.00
997;DHT22;487;50.126;8.698;2022-09-24T01:20:52;14.00;1.00
997;DHT22;487;50.126;8.698;2022-09-24T01:23:55;13.90;1.00
997;DHT22;487;50.126;8.698;2022-09-24T01:26:39;13.80;1.00
997;DHT22;487;50.126;8.698;2022-09-24T01:29:36;13.80;1.00
997;DHT22;487;50.126;8.698;2022-09-24T01:32:12;13.80;1.00
997;DHT22;487;50.126;8.698;2022-09-24T01:34:45;13.80;1.00
997;DHT22;487;50.126;8.698;2022-09-24T01:39:45;13.80;1.00
997;DHT22;487;50.126;8.698;2022-09-24T01:42:13;13.80;1.00
997;DHT22;487;50.126;8.698;2022-09-24T01:44:44;13.80;1.00
997;DHT22;487;50.126;8.698;2022-09-24T01:47:17;13.80;1.00
997;DHT22;487;50.126;8.698;2022-09-24T01:49:46;13.80;1.00
997;DHT22;487;50.126;8.698;2022-09-24T01:52:21;13.80;1.00
997;DHT22;487;50.126;8.698;2022-09-24T01:54:53;13.70;1.00
997;DHT22;487;50.126;8.698;2022-09-24T01:57:24;13.70;1.00
997;DHT22;487;50.126;8.698;2022-09-24T02:00:00;13.70;1.00
997;DHT22;487;50.126;8.698;2022-09-24T02:02:32;13.60;1.00
997;DHT22;487;50.126;8.698;2022-09-24T02:05:06;13.60;1.00
997;DHT22;487;50.126;8.698;2022-09-24T02:07:41;13.60;1.00
997;DHT22;487;50.126;8.698;2022-09-24T02:10:14;13.60;1.00
997;DHT22;487;50.126;8.698;2022-09-24T02:12:45;13.60;1.00
997;DHT22;487;50.126;8.698;2022-09-24T02:15:17;13.60;1.00
997;DHT22;487;50.126;8.698;2022-09-24T02:17:50;13.50;1.00
997;DHT22;487;50.126;8.698;2022-09-24T02:20:21;13.50;1.00
997;DHT22;487;50.126;8.698;2022-09-24T02:22:50;13.50;1.00
997;DHT22;487;50.126;8.698;2022-09-24T02:25:24;13.50;1.00
997;DHT22;487;50.126;8.698;2022-09-24T02:30:39;13.40;1.00
997;DHT22;487;50.126;8.698;2022-09-24T02:33:11;13.30;1.00
997;DHT22;487;50.126;8.698;2022-09-24T02:35:53;13.30;1.00
997;DHT22;487;50.126;8.698;2022-09-24T02:38:21;13.20;1.00
997;DHT22;487;50.126;8.698;2022-09-24T02:40:50;13.20;1.00
997;DHT22;487;50.126;8.698;2022-09-24T02:43:19;13.10;1.00
997;DHT22;487;50.126;8.698;2022-09-24T02:45:47;13.00;1.00
997;DHT22;487;50.126;8.698;2022-09-24T02:48:15;13.00;1.00
997;DHT22;487;50.126;8.698;2022-09-24T02:50:43;13.00;1.00
997;DHT22;487;50.126;8.698;2022-09-24T02:53:11;13.00;1.00
997;DHT22;487;50.126;8.698;2022-09-24T02:55:38;13.00;1.00
997;DHT22;487;50.126;8.698;2022-09-24T02:58:06;13.00;1.00
997;DHT22;487;50.126;8.698;2022-09-24T03:00:35;13.00;1.00
997;DHT22;487;50.126;8.698;2022-09-24T03:03:03;13.00;1.00
997;DHT22;487;50.126;8.698;2022-09-24T03:05:31;13.00;1.00
997;DHT22;487;50.126;8.698;2022-09-24T03:07:58;13.00;1.00
997;DHT22;487;50.126;8.698;2022-09-24T03:10:26;13.00;1.00
997;DHT22;487;50.126;8.698;2022-09-24T03:12:54;13.00;1.00
997;DHT22;487;50.126;8.698;2022-09-24T03:15:22;13.00;1.00
997;DHT22;487;50.126;8.698;2022-09-24T03:20:21;12.90;1.00
997;DHT22;487;50.126;8.698;2022-09-24T03:25:18;12.80;1.00
997;DHT22;487;50.126;8.698;2022-09-24T03:30:14;12.80;1.00
997;DHT22;487;50.126;8.698;2022-09-24T03:33:01;12.70;1.00
997;DHT22;487;50.126;8.698;2022-09-24T03:35:29;12.70;1.00
997;DHT22;487;50.126;8.698;2022-09-24T03:37:57;12.60;1.00
997;DHT22;487;50.126;8.698;2022-09-24T03:40:25;12.60;1.00
997;DHT22;487;50.126;8.698;2022-09-24T03:42:52;12.60;1.00
997;DHT22;487;50.126;8.698;2022-09-24T03:45:20;12.60;1.00
997;DHT22;487;50.126;8.698;2022-09-24T03:47:48;12.70;1.00
997;DHT22;487;50.126;8.698;2022-09-24T03:50:17;12.60;1.00
997;DHT22;487;50.126;8.698;2022-09-24T03:52:45;12.60;1.00
997;DHT22;487;50.126;8.698;2022-09-24T03:55:13;12.50;1.00
997;DHT22;487;50.126;8.698;2022-09-24T03:57:41;12.50;1.00
997;DHT22;487;50.126;8.698;2022-09-24T04:00:10;12.50;1.00
997;DHT22;487;50.126;8.698;2022-09-24T04:02:38;12.40;1.00
997;DHT22;487;50.126;8.698;2022-09-24T04:05:07;12.70;1.00
997;DHT22;487;50.126;8.698;2022-09-24T04:07:36;12.30;1.00
997;DHT22;487;50.126;8.698;2022-09-24T04:10:05;12.30;1.00
997;DHT22;487;50.126;8.698;2022-09-24T04:12:34;12.30;1.00
997;DHT22;487;50.126;8.698;2022-09-24T04:15:02;12.20;1.00
997;DHT22;487;50.126;8.698;2022-09-24T04:17:30;12.20;1.00
997;DHT22;487;50.126;8.698;2022-09-24T04:19:58;12.30;1.00
997;DHT22;487;50.126;8.698;2022-09-24T04:22:27;12.30;1.00
997;DHT22;487;50.126;8.698;2022-09-24T04:24:56;12.20;1.00
997;DHT22;487;50.126;8.698;2022-09-24T04:27:24;12.20;1.00
997;DHT22;487;50.126;8.698;2022-09-24T04:29:52;12.10;1.00
997;DHT22;487;50.126;8.698;2022-09-24T04:32:20;12.30;1.00
997;DHT22;487;50.126;8.698;2022-09-24T04:34:48;12.30;1.00
997;DHT22;487;50.126;8.698;2022-09-24T04:37:16;12.30;1.00
997;DHT22;487;50.126;8.698;2022-09-24T04:39:43;12.40;1.00
997;DHT22;487;50.126;8.698;2022-09-24T04:42:16;12.40;1.00
997;DHT22;487;50.126;8.698;2022-09-24T04:44:44;12.40;1.00
997;DHT22;487;50.126;8.698;2022-09-24T04:47:13;12.50;1.00
997;DHT22;487;50.126;8.698;2022-09-24T04:49:42;12.50;1.00
997;DHT22;487;50.126;8.698;2022-09-24T04:52:11;12.50;1.00
997;DHT22;487;50.126;8.698;2022-09-24T04:54:40;12.50;1.00
997;DHT22;487;50.126;8.698;2022-09-24T04:57:10;12.50;1.00
997;DHT22;487;50.126;8.698;2022-09-24T04:59:40;12.50;1.00
997;DHT22;487;50.126;8.698;2022-09-24T05:02:08;12.50;1.00
997;DHT22;487;50.126;8.698;2022-09-24T05:07:05;12.40;1.00
997;DHT22;487;50.126;8.698;2022-09-24T05:09:32;12.40;1.00
997;DHT22;487;50.126;8.698;2022-09-24T05:12:01;12.50;1.00
997;DHT22;487;50.126;8.698;2022-09-24T05:14:29;12.50;1.00
997;DHT22;487;50.126;8.698;2022-09-24T05:16:58;12.50;1.00
997;DHT22;487;50.126;8.698;2022-09-24T05:19:26;12.50;1.00
997;DHT22;487;50.126;8.698;2022-09-24T05:21:54;12.50;1.00
997;DHT22;487;50.126;8.698;2022-09-24T05:24:22;12.50;1.00
997;DHT22;487;50.126;8.698;2022-09-24T05:26:50;12.50;1.00
997;DHT22;487;50.126;8.698;2022-09-24T05:29:37;12.50;1.00
997;DHT22;487;50.126;8.698;2022-09-24T05:32:08;12.50;1.00
997;DHT22;487;50.126;8.698;2022-09-24T05:34:36;12.50;1.00
997;DHT22;487;50.126;8.698;2022-09-24T05:37:04;12.40;1.00
997;DHT22;487;50.126;8.698;2022-09-24T05:39:32;12.40;1.00
997;DHT22;487;50.126;8.698;2022-09-24T05:42:00;12.40;1.00
997;DHT22;487;50.126;8.698;2022-09-24T05:44:30;12.40;1.00
997;DHT22;487;50.126;8.698;2022-09-24T05:49:27;12.40;1.00
997;DHT22;487;50.126;8.698;2022-09-24T05:51:55;12.40;1.00
997;DHT22;487;50.126;8.698;2022-09-24T05:54:23;12.40;1.00
997;DHT22;487;50.126;8.698;2022-09-24T05:56:51;12.50;1.00
997;DHT22;487;50.126;8.698;2022-09-24T05:59:19;12.50;1.00
997;DHT22;487;50.126;8.698;2022-09-24T06:01:47;12.50;1.00
997;DHT22;487;50.126;8.698;2022-09-24T06:04:15;12.50;1.00
997;DHT22;487;50.126;8.698;2022-09-24T06:09:13;12.60;1.00
997;DHT22;487;50.126;8.698;2022-09-24T06:11:40;12.60;1.00
997;DHT22;487;50.126;8.698;2022-09-24T06:14:08;12.60;1.00
997;DHT22;487;50.126;8.698;2022-09-24T06:16:37;12.70;1.00
997;DHT22;487;50.126;8.698;2022-09-24T06:19:05;12.80;1.00
997;DHT22;487;50.126;8.698;2022-09-24T06:21:33;12.80;1.00
997;DHT22;487;50.126;8.698;2022-09-24T06:24:03;12.80;1.00
997;DHT22;487;50.126;8.698;2022-09-24T06:26:30;12.80;1.00
997;DHT22;487;50.126;8.698;2022-09-24T06:28:59;12.80;1.00
997;DHT22;487;50.126;8.698;2022-09-24T06:31:31;12.90;1.00
997;DHT22;487;50.126;8.698;2022-09-24T06:36:29;12.90;1.00
997;DHT22;487;50.126;8.698;2022-09-24T06:38:57;12.90;1.00
997;DHT22;487;50.126;8.698;2022-09-24T06:41:27;12.80;1.00
997;DHT22;487;50.126;8.698;2022-09-24T06:43:54;12.80;1.00
997;DHT22;487;50.126;8.698;2022-09-24T06:46:22;12.80;1.00
997;DHT22;487;50.126;8.698;2022-09-24T06:48:51;12.80;1.00
997;DHT22;487;50.126;8.698;2022-09-24T06:51:20;12.80;1.00
997;DHT22;487;50.126;8.698;2022-09-24T06:53:50;12.80;1.00
997;DHT22;487;50.126;8.698;2022-09-24T06:56:18;12.90;1.00
997;DHT22;487;50.126;8.698;2022-09-24T06:58:47;12.90;1.00
997;DHT22;487;50.126;8.698;2022-09-24T07:01:15;12.90;1.00
997;DHT22;487;50.126;8.698;2022-09-24T07:03:43;13.00;1.00
997;DHT22;487;50.126;8.698;2022-09-24T07:06:11;13.00;1.00
997;DHT22;487;50.126;8.698;2022-09-24T07:08:38;13.00;1.00
997;DHT22;487;50.126;8.698;2022-09-24T07:11:06;13.00;1.00
997;DHT22;487;50.126;8.698;2022-09-24T07:13:34;13.10;1.00
997;DHT22;487;50.126;8.698;2022-09-24T07:16:04;13.10;1.00
997;DHT22;487;50.126;8.698;2022-09-24T07:18:32;13.10;1.00
997;DHT22;487;50.126;8.698;2022-09-24T07:21:00;13.10;1.00
997;DHT22;487;50.126;8.698;2022-09-24T07:23:27;13.20;1.00
997;DHT22;487;50.126;8.698;2022-09-24T07:25:56;13.20;1.00
997;DHT22;487;50.126;8.698;2022-09-24T07:28:24;13.20;1.00
997;DHT22;487;50.126;8.698;2022-09-24T07:30:56;13.20;1.00
997;DHT22;487;50.126;8.698;2022-09-24T07:33:26;13.30;1.00
997;DHT22;487;50.126;8.698;2022-09-24T07:38:22;13.30;1.00
997;DHT22;487;50.126;8.698;2022-09-24T07:40:50;13.40;1.00
997;DHT22;487;50.126;8.698;2022-09-24T07:43:20;13.40;1.00
997;DHT22;487;50.126;8.698;2022-09-24T07:45:47;13.50;1.00
997;DHT22;487;50.126;8.698;2022-09-24T07:48:15;13.50;1.00
997;DHT22;487;50.126;8.698;2022-09-24T07:50:44;13.60;1.00
997;DHT22;487;50.126;8.698;2022-09-24T07:53:12;13.70;1.00
997;DHT22;487;50.126;8.698;2022-09-24T07:55:40;13.70;1.00
997;DHT22;487;50.126;8.698;2022-09-24T07:58:11;13.80;1.00
997;DHT22;487;50.126;8.698;2022-09-24T08:00:39;13.90;1.00
997;DHT22;487;50.126;8.698;2022-09-24T08:03:07;14.00;1.00
997;DHT22;487;50.126;8.698;2022-09-24T08:05:37;14.00;1.00
997;DHT22;487;50.126;8.698;2022-09-24T08:08:09;14.10;1.00
997;DHT22;487;50.126;8.698;2022-09-24T08:10:37;14.20;1.00
997;DHT22;487;50.126;8.698;2022-09-24T08:13:05;14.30;1.00
997;DHT22;487;50.126;8.698;2022-09-24T08:18:02;14.40;1.00
997;DHT22;487;50.126;8.698;2022-09-24T08:20:31;14.40;1.00
997;DHT22;487;50.126;8.698;2022-09-24T08:22:59;14.50;1.00
997;DHT22;487;50.126;8.698;2022-09-24T08:25:29;14.60;1.00
997;DHT22;487;50.126;8.698;2022-09-24T08:28:00;14.60;1.00
997;DHT22;487;50.126;8.698;2022-09-24T08:30:28;14.70;1.00
997;DHT22;487;50.126;8.698;2022-09-24T08:32:56;14.70;1.00
997;DHT22;487;50.126;8.698;2022-09-24T08:35:24;14.80;1.00
997;DHT22;487;50.126;8.698;2022-09-24T08:37:52;14.90;1.00
997;DHT22;487;50.126;8.698;2022-09-24T08:40:23;14.90;1.00
997;DHT22;487;50.126;8.698;2022-09-24T08:42:58;14.90;1.00
997;DHT22;487;50.126;8.698;2022-09-24T08:45:40;14.90;1.00
997;DHT22;487;50.126;8.698;2022-09-24T08:48:29;15.00;1.00
997;DHT22;487;50.126;8.698;2022-09-24T08:51:02;15.00;1.00
997;DHT22;487;50.126;8.698;2022-09-24T08:53:40;15.00;1.00
997;DHT22;487;50.126;8.698;2022-09-24T08:56:10;15.10;1.00
997;DHT22;487;50.126;8.698;2022-09-24T08:58:45;15.10;1.00
997;DHT22;487;50.126;8.698;2022-09-24T09:01:20;15.20;1.00
997;DHT22;487;50.126;8.698;2022-09-24T09:03:53;15.20;1.00
997;DHT22;487;50.126;8.698;2022-09-24T09:06:38;15.20;1.00
997;DHT22;487;50.126;8.698;2022-09-24T09:09:11;15.10;1.00
997;DHT22;487;50.126;8.698;2022-09-24T09:11:44;15.20;1.00
997;DHT22;487;50.126;8.698;2022-09-24T09:14:23;15.20;1.00
997;DHT22;487;50.126;8.698;2022-09-24T09:17:02;15.30;1.00
997;DHT22;487;50.126;8.698;2022-09-24T09:19:33;15.30;1.00
997;DHT22;487;50.126;8.698;2022-09-24T09:22:08;15.20;1.00
997;DHT22;487;50.126;8.698;2022-09-24T09:24:42;15.30;1.00
997;DHT22;487;50.126;8.698;2022-09-24T09:27:12;15.30;1.00
997;DHT22;487;50.126;8.698;2022-09-24T09:29:44;15.40;1.00
997;DHT22;487;50.126;8.698;2022-09-24T09:32:30;15.40;1.00
997;DHT22;487;50.126;8.698;2022-09-24T09:35:12;15.50;1.00
997;DHT22;487;50.126;8.698;2022-09-24T09:37:48;15.50;1.00
997;DHT22;487;50.126;8.698;2022-09-24T09:40:29;15.50;1.00
997;DHT22;487;50.126;8.698;2022-09-24T09:43:06;15.60;1.00
997;DHT22;487;50.126;8.698;2022-09-24T09:45:42;15.70;1.00
997;DHT22;487;50.126;8.698;2022-09-24T09:48:14;15.80;1.00
997;DHT22;487;50.126;8.698;2022-09-24T09:50:48;15.90;1.00
997;DHT22;487;50.126;8.698;2022-09-24T09:53:19;16.00;1.00
997;DHT22;487;50.126;8.698;2022-09-24T09:58:24;16.20;1.00
997;DHT22;487;50.126;8.698;2022-09-24T10:01:07;16.40;1.00
997;DHT22;487;50.126;8.698;2022-09-24T10:03:49;16.50;1.00
997;DHT22;487;50.126;8.698;2022-09-24T10:06:24;16.50;1.00
997;DHT22;487;50.126;8.698;2022-09-24T10:09:07;16.60;1.00
997;DHT22;487;50.126;8.698;2022-09-24T10:11:35;16.70;1.00
997;DHT22;487;50.126;8.698;2022-09-24T10:14:07;16.90;1.00
997;DHT22;487;50.126;8.698;2022-09-24T10:16:43;17.00;1.00
997;DHT22;487;50.126;8.698;2022-09-24T10:19:14;17.00;1.00
997;DHT22;487;50.126;8.698;2022-09-24T10:21:44;17.20;1.00
997;DHT22;487;50.126;8.698;2022-09-24T10:24:14;17.20;1.00
997;DHT22;487;50.126;8.698;2022-09-24T10:26:44;17.20;1.00
997;DHT22;487;50.126;8.698;2022-09-24T10:29:16;16.10;1.00
997;DHT22;487;50.126;8.698;2022-09-24T10:32:05;17.20;1.00
997;DHT22;487;50.126;8.698;2022-09-24T10:34:33;17.30;1.00
997;DHT22;487;50.126;8.698;2022-09-24T10:37:03;17.30;1.00
997;DHT22;487;50.126;8.698;2022-09-24T10:39:36;17.40;1.00
997;DHT22;487;50.126;8.698;2022-09-24T10:42:04;17.40;1.00
997;DHT22;487;50.126;8.698;2022-09-24T10:44:35;17.40;1.00
997;DHT22;487;50.126;8.698;2022-09-24T10:47:18;17.50;1.00
997;DHT22;487;50.126;8.698;2022-09-24T10:52:46;17.50;1.00
997;DHT22;487;50.126;8.698;2022-09-24T10:58:20;17.50;1.00
997;DHT22;487;50.126;8.698;2022-09-24T11:01:03;17.60;1.00
997;DHT22;487;50.126;8.698;2022-09-24T11:03:55;17.60;1.00
997;DHT22;487;50.126;8.698;2022-09-24T11:06:39;17.70;1.00
997;DHT22;487;50.126;8.698;2022-09-24T11:09:21;17.70;1.00
997;DHT22;487;50.126;8.698;2022-09-24T11:11:57;17.70;1.00
997;DHT22;487;50.126;8.698;2022-09-24T11:14:47;17.80;1.00
997;DHT22;487;50.126;8.698;2022-09-24T11:17:30;17.90;1.00
997;DHT22;487;50.126;8.698;2022-09-24T11:20:18;17.90;1.00
997;DHT22;487;50.126;8.698;2022-09-24T11:23:05;17.90;1.00
997;DHT22;487;50.126;8.698;2022-09-24T11:25:42;18.00;1.00
997;DHT22;487;50.126;8.698;2022-09-24T11:28:29;18.00;1.00
997;DHT22;487;50.126;8.698;2022-09-24T11:31:11;18.10;1.00
997;DHT22;487;50.126;8.698;2022-09-24T11:33:56;18.20;1.00
997;DHT22;487;50.126;8.698;2022-09-24T11:36:40;18.30;1.00
997;DHT22;487;50.126;8.698;2022-09-24T11:39:21;18.40;1.00
997;DHT22;487;50.126;8.698;2022-09-24T11:41:58;18.50;1.00
997;DHT22;487;50.126;8.698;2022-09-24T11:45:03;18.70;1.00
997;DHT22;487;50.126;8.698;2022-09-24T11:47:43;18.80;1.00
997;DHT22;487;50.126;8.698;2022-09-24T11:50:22;18.90;1.00
997;DHT22;487;50.126;8.698;2022-09-24T11:52:57;19.20;1.00
997;DHT22;487;50.126;8.698;2022-09-24T11:55:33;19.20;1.00
997;DHT22;487;50.126;8.698;2022-09-24T11:58:11;19.20;1.00
997;DHT22;487;50.126;8.698;2022-09-24T12:00:43;19.30;1.00
997;DHT22;487;50.126;8.698;2022-09-24T12:03:16;19.40;1.00
997;DHT22;487;50.126;8.698;2022-09-24T12:05:56;19.30;1.00
997;DHT22;487;50.126;8.698;2022-09-24T12:08:33;19.30;1.00
997;DHT22;487;50.126;8.698;2022-09-24T12:11:09;19.30;1.00
997;DHT22;487;50.126;8.698;2022-09-24T12:13:41;19.20;1.00
997;DHT22;487;50.126;8.698;2022-09-24T12:16:14;19.20;1.00
997;DHT22;487;50.126;8.698;2022-09-24T12:18:48;19.20;1.00
997;DHT22;487;50.126;8.698;2022-09-24T12:21:21;19.20;1.00
997;DHT22;487;50.126;8.698;2022-09-24T12:23:56;19.20;1.00
997;DHT22;487;50.126;8.698;2022-09-24T12:26:29;19.30;1.00
997;DHT22;487;50.126;8.698;2022-09-24T12:29:00;19.40;1.00
997;DHT22;487;50.126;8.698;2022-09-24T12:31:53;19.40;1.00
997;DHT22;487;50.126;8.698;2022-09-24T12:34:47;19.60;1.00
997;DHT22;487;50.126;8.698;2022-09-24T12:37:20;19.60;1.00
997;DHT22;487;50.126;8.698;2022-09-24T12:39:55;19.70;1.00
997;DHT22;487;50.126;8.698;2022-09-24T12:42:28;19.80;1.00
997;DHT22;487;50.126;8.698;2022-09-24T12:44:59;19.80;1.00
997;DHT22;487;50.126;8.698;2022-09-24T12:47:31;19.80;1.00
997;DHT22;487;50.126;8.698;2022-09-24T12:50:02;19.80;1.00
997;DHT22;487;50.126;8.698;2022-09-24T12:52:33;19.80;1.00
997;DHT22;487;50.126;8.698;2022-09-24T12:57:36;19.80;1.00
997;DHT22;487;50.126;8.698;2022-09-24T13:00:35;19.80;1.00
997;DHT22;487;50.126;8.698;2022-09-24T13:03:04;19.80;1.00
997;DHT22;487;50.126;8.698;2022-09-24T13:05:45;19.80;1.00
997;DHT22;487;50.126;8.698;2022-09-24T13:08:25;19.90;1.00
997;DHT22;487;50.126;8.698;2022-09-24T13:10:56;19.90;1.00
997;DHT22;487;50.126;8.698;2022-09-24T13:13:27;19.90;1.00
997;DHT22;487;50.126;8.698;2022-09-24T13:16:02;19.90;1.00
997;DHT22;487;50.126;8.698;2022-09-24T13:18:33;19.80;1.00
997;DHT22;487;50.126;8.698;2022-09-24T13:21:04;19.80;1.00
997;DHT22;487;50.126;8.698;2022-09-24T13:23:45;19.90;1.00
997;DHT22;487;50.126;8.698;2022-09-24T13:26:27;20.60;1.00
997;DHT22;487;50.126;8.698;2022-09-24T13:28:56;19.90;1.00
997;DHT22;487;50.126;8.698;2022-09-24T13:31:34;19.90;1.00
997;DHT22;487;50.126;8.698;2022-09-24T13:34:13;19.90;1.00
997;DHT22;487;50.126;8.698;2022-09-24T13:36:46;20.10;1.00
997;DHT22;487;50.126;8.698;2022-09-24T13:39:18;20.10;1.00
997;DHT22;487;50.126;8.698;2022-09-24T13:41:55;20.20;1.00
997;DHT22;487;50.126;8.698;2022-09-24T13:44:28;20.10;1.00
997;DHT22;487;50.126;8.698;2022-09-24T13:47:00;20.10;1.00
997;DHT22;487;50.126;8.698;2022-09-24T13:49:29;20.20;1.00
997;DHT22;487;50.126;8.698;2022-09-24T13:52:06;20.20;1.00
997;DHT22;487;50.126;8.698;2022-09-24T13:54:40;20.40;1.00
997;DHT22;487;50.126;8.698;2022-09-24T13:57:19;20.40;1.00
997;DHT22;487;50.126;8.698;2022-09-24T13:59:48;20.40;1.00
997;DHT22;487;50.126;8.698;2022-09-24T14:02:22;20.40;1.00
997;DHT22;487;50.126;8.698;2022-09-24T14:04:55;20.30;1.00
997;DHT22;487;50.126;8.698;2022-09-24T14:07:26;20.30;1.00
997;DHT22;487;50.126;8.698;2022-09-24T14:10:06;20.30;1.00
997;DHT22;487;50.126;8.698;2022-09-24T14:12:40;20.20;1.00
997;DHT22;487;50.126;8.698;2022-09-24T14:15:13;20.10;1.00
997;DHT22;487;50.126;8.698;2022-09-24T14:17:41;20.00;1.00
997;DHT22;487;50.126;8.698;2022-09-24T14:20:12;20.00;1.00
997;DHT22;487;50.126;8.698;2022-09-24T14:22:43;20.00;1.00
997;DHT22;487;50.126;8.698;2022-09-24T14:25:15;19.80;1.00
997;DHT22;487;50.126;8.698;2022-09-24T14:27:48;19.70;1.00
997;DHT22;487;50.126;8.698;2022-09-24T14:30:19;19.70;1.00
997;DHT22;487;50.126;8.698;2022-09-24T14:32:50;19.70;1.00
997;DHT22;487;50.126;8.698;2022-09-24T14:35:26;19.50;1.00
997;DHT22;487;50.126;8.698;2022-09-24T14:37:59;19.40;1.00
997;DHT22;487;50.126;8.698;2022-09-24T14:40:29;19.40;1.00
997;DHT22;487;50.126;8.698;2022-09-24T14:43:13;19.40;1.00
997;DHT22;487;50.126;8.698;2022-09-24T14:45:41;19.30;1.00
997;DHT22;487;50.126;8.698;2022-09-24T14:48:18;19.20;1.00
997;DHT22;487;50.126;8.698;2022-09-24T14:50:47;19.20;1.00
997;DHT22;487;50.126;8.698;2022-09-24T14:53:20;19.20;1.00
997;DHT22;487;50.126;8.698;2022-09-24T14:55:49;19.10;1.00
997;DHT22;487;50.126;8.698;2022-09-24T14:58:32;18.90;1.00
997;DHT22;487;50.126;8.698;2022-09-24T15:01:04;18.80;1.00
997;DHT22;487;50.126;8.698;2022-09-24T15:03:38;18.80;1.00
997;DHT22;487;50.126;8.698;2022-09-24T15:06:18;18.90;1.00
997;DHT22;487;50.126;8.698;2022-09-24T15:08:57;16.60;1.00
997;DHT22;487;50.126;8.698;2022-09-24T15:11:27;18.80;1.00
997;DHT22;487;50.126;8.698;2022-09-24T15:14:00;19.00;1.00
997;DHT22;487;50.126;8.698;2022-09-24T15:16:31;19.00;1.00
997;DHT22;487;50.126;8.698;2022-09-24T15:19:14;19.00;1.00
997;DHT22;487;50.126;8.698;2022-09-24T15:21:45;19.00;1.00
997;DHT22;487;50.126;8.698;2022-09-24T15:24:14;18.90;1.00
997;DHT22;487;50.126;8.698;2022-09-24T15:26:44;18.90;1.00
997;DHT22;487;50.126;8.698;2022-09-24T15:29:18;18.90;1.00
997;DHT22;487;50.126;8.698;2022-09-24T15:31:50;18.80;1.00
997;DHT22;487;50.126;8.698;2022-09-24T15:34:18;18.80;1.00
997;DHT22;487;50.126;8.698;2022-09-24T15:39:16;18.80;1.00
997;DHT22;487;50.126;8.698;2022-09-24T15:41:45;18.80;1.00
997;DHT22;487;50.126;8.698;2022-09-24T15:44:19;18.80;1.00
997;DHT22;487;50.126;8.698;2022-09-24T15:46:48;18.90;1.00
997;DHT22;487;50.126;8.698;2022-09-24T15:51:50;19.00;1.00
997;DHT22;487;50.126;8.698;2022-09-24T15:54:18;19.00;1.00
997;DHT22;487;50.126;8.698;2022-09-24T15:56:47;19.00;1.00
997;DHT22;487;50.126;8.698;2022-09-24T15:59:20;18.90;1.00
997;DHT22;487;50.126;8.698;2022-09-24T16:01:50;18.80;1.00
997;DHT22;487;50.126;8.698;2022-09-24T16:04:20;18.80;1.00
997;DHT22;487;50.126;8.698;2022-09-24T16:06:48;18.80;1.00
997;DHT22;487;50.126;8.698;2022-09-24T16:09:16;18.80;1.00
997;DHT22;487;50.126;8.698;2022-09-24T16:11:44;18.80;1.00
997;DHT22;487;50.126;8.698;2022-09-24T16:14:12;18.80;1.00
997;DHT22;487;50.126;8.698;2022-09-24T16:16:41;18.80;1.00
997;DHT22;487;50.126;8.698;2022-09-24T16:19:12;18.80;1.00
997;DHT22;487;50.126;8.698;2022-09-24T16:21:40;18.80;1.00
997;DHT22;487;50.126;8.698;2022-09-24T16:24:08;18.60;1.00
997;DHT22;487;50.126;8.698;2022-09-24T16:26:36;18.60;1.00
997;DHT22;487;50.126;8.698;2022-09-24T16:29:04;18.60;1.00
997;DHT22;487;50.126;8.698;2022-09-24T16:31:35;18.60;1.00
997;DHT22;487;50.126;8.698;2022-09-24T16:34:04;18.60;1.00
997;DHT22;487;50.126;8.698;2022-09-24T16:36:32;18.60;1.00
997;DHT22;487;50.126;8.698;2022-09-24T16:39:01;18.60;1.00
997;DHT22;487;50.126;8.698;2022-09-24T16:41:29;18.60;1.00
997;DHT22;487;50.126;8.698;2022-09-24T16:46:28;18.50;1.00
997;DHT22;487;50.126;8.698;2022-09-24T16:48:56;18.50;1.00
997;DHT22;487;50.126;8.698;2022-09-24T16:51:25;18.50;1.00
997;DHT22;487;50.126;8.698;2022-09-24T16:53:54;18.50;1.00
997;DHT22;487;50.126;8.698;2022-09-24T16:56:22;18.50;1.00
997;DHT22;487;50.126;8.698;2022-09-24T16:58:57;18.50;1.00
997;DHT22;487;50.126;8.698;2022-09-24T17:01:25;18.50;1.00
997;DHT22;487;50.126;8.698;2022-09-24T17:03:54;18.50;1.00
997;DHT22;487;50.126;8.698;2022-09-24T17:06:27;18.50;1.00
997;DHT22;487;50.126;8.698;2022-09-24T17:08:55;18.40;1.00
997;DHT22;487;50.126;8.698;2022-09-24T17:11:41;18.40;1.00
997;DHT22;487;50.126;8.698;2022-09-24T17:14:10;18.40;1.00
997;DHT22;487;50.126;8.698;2022-09-24T17:16:38;18.40;1.00
997;DHT22;487;50.126;8.698;2022-09-24T17:19:07;18.40;1.00
997;DHT22;487;50.126;8.698;2022-09-24T17:21:38;18.40;1.00
997;DHT22;487;50.126;8.698;2022-09-24T17:24:07;18.40;1.00
997;DHT22;487;50.126;8.698;2022-09-24T17:26:36;18.40;1.00
997;DHT22;487;50.126;8.698;2022-09-24T17:29:04;19.60;1.00
997;DHT22;487;50.126;8.698;2022-09-24T17:31:32;18.30;1.00
997;DHT22;487;50.126;8.698;2022-09-24T17:34:02;18.30;1.00
997;DHT22;487;50.126;8.698;2022-09-24T17:36:32;18.30;1.00
997;DHT22;487;50.126;8.698;2022-09-24T17:39:02;18.30;1.00
997;DHT22;487;50.126;8.698;2022-09-24T17:41:31;18.20;1.00
997;DHT22;487;50.126;8.698;2022-09-24T17:43:59;18.20;1.00
997;DHT22;487;50.126;8.698;2022-09-24T17:46:29;18.20;1.00
997;DHT22;487;50.126;8.698;2022-09-24T17:48:58;18.20;1.00
997;DHT22;487;50.126;8.698;2022-09-24T17:51:28;18.10;1.00
997;DHT22;487;50.126;8.698;2022-09-24T17:53:59;18.10;1.00
997;DHT22;487;50.126;8.698;2022-09-24T17:56:30;18.00;1.00
997;DHT22;487;50.126;8.698;2022-09-24T17:58:59;18.00;1.00
997;DHT22;487;50.126;8.698;2022-09-24T18:01:28;18.00;1.00
997;DHT22;487;50.126;8.698;2022-09-24T18:03:59;18.00;1.00
997;DHT22;487;50.126;8.698;2022-09-24T18:06:27;18.10;1.00
997;DHT22;487;50.126;8.698;2022-09-24T18:08:59;18.10;1.00
997;DHT22;487;50.126;8.698;2022-09-24T18:11:30;18.10;1.00
997;DHT22;487;50.126;8.698;2022-09-24T18:13:59;18.10;1.00